Time;durP1;ratioP1;P1;durP2;ratioP2;P2;SDS_P1;SDS_P2;PMS_P1;PMS_P2;Temp;Humidity;BMP_temperature;BMP_pressure;BME280_temperature;BME280_humidity;BME280_pressure;Samples;Min_cycle;Max_cycle;Signal;HPM_P1;HPM_P2
2023/05/10 00:00:40;;;;;;;4.13;3.63;;;14.00;53.10;;;;;;5072818;28;20475;-63
2023/05/10 00:03:06;;;;;;;4.70;3.00;;;14.00;53.10;;;;;;5072667;28;20965;-62
2023/05/10 00:05:33;;;;;;;4.67;3.00;;;14.00;53.20;;;;;;5072646;28;20479;-61
2023/05/10 00:08:00;;;;;;;4.23;3.00;;;14.00;53.20;;;;;;5072927;28;20454;-61
2023/05/10 00:10:26;;;;;;;4.63;3.33;;;13.90;53.30;;;;;;5072969;28;20439;-61
2023/05/10 00:12:53;;;;;;;3.90;3.30;;;14.00;53.50;;;;;;5072841;28;20450;-62
2023/05/10 00:15:21;;;;;;;3.30;3.00;;;13.90;53.50;;;;;;5072727;28;20463;-62
2023/05/10 00:17:48;;;;;;;4.60;2.83;;;13.90;53.60;;;;;;5071230;28;20798;-62
2023/05/10 00:20:15;;;;;;;3.33;3.00;;;13.90;53.90;;;;;;5072581;28;20689;-62
2023/05/10 00:22:42;;;;;;;5.20;2.90;;;13.90;54.20;;;;;;5071807;28;20415;-61
2023/05/10 00:25:10;;;;;;;5.40;3.70;;;13.80;54.30;;;;;;5072949;28;20240;-61
2023/05/10 00:27:36;;;;;;;4.43;3.37;;;13.80;54.50;;;;;;5075502;28;20497;-62
2023/05/10 00:30:04;;;;;;;4.73;3.10;;;13.80;54.60;;;;;;5077681;28;20458;-61
2023/05/10 00:32:32;;;;;;;4.80;2.90;;;13.80;54.70;;;;;;5077475;28;20450;-62
2023/05/10 00:34:58;;;;;;;7.93;3.70;;;13.80;54.70;;;;;;5076953;28;20463;-60
2023/05/10 00:37:25;;;;;;;3.87;3.30;;;13.80;54.80;;;;;;5077001;28;20479;-62
2023/05/10 00:39:53;;;;;;;3.03;2.73;;;13.70;54.80;;;;;;5077083;28;20447;-61
2023/05/10 00:42:19;;;;;;;5.63;3.00;;;13.70;54.90;;;;;;5076982;28;20524;-61
2023/05/10 00:44:46;;;;;;;7.33;3.43;;;13.70;55.00;;;;;;5076767;28;20443;-61
2023/05/10 00:47:13;;;;;;;3.87;3.23;;;13.70;55.10;;;;;;5076867;28;20475;-62
2023/05/10 00:49:41;;;;;;;4.23;2.87;;;13.70;55.20;;;;;;5076661;28;20470;-62
2023/05/10 00:52:09;;;;;;;3.87;3.50;;;13.60;55.30;;;;;;5076226;28;20450;-62
2023/05/10 00:54:36;;;;;;;3.60;3.30;;;13.60;55.50;;;;;;5076284;28;20447;-61
2023/05/10 00:57:03;;;;;;;4.20;3.80;;;13.60;55.60;;;;;;5077002;28;20475;-62
2023/05/10 00:59:30;;;;;;;4.53;3.70;;;13.60;55.80;;;;;;5076661;28;20447;-62
2023/05/10 01:01:58;;;;;;;9.47;3.63;;;13.50;55.90;;;;;;5076559;28;20443;-61
2023/05/10 01:04:26;;;;;;;4.68;3.33;;;13.50;56.00;;;;;;5075446;28;20423;-62
2023/05/10 01:06:54;;;;;;;3.53;3.23;;;13.50;56.40;;;;;;5075904;22;20329;-66
2023/05/10 01:09:22;;;;;;;4.90;3.60;;;13.50;56.80;;;;;;5056673;28;20448;-67
2023/05/10 01:11:49;;;;;;;3.60;3.23;;;13.40;56.90;;;;;;5057383;28;20443;-65
2023/05/10 01:14:18;;;;;;;4.07;3.27;;;13.40;57.00;;;;;;5057535;28;20454;-66
2023/05/10 01:16:47;;;;;;;4.17;3.10;;;13.40;57.10;;;;;;5058287;28;20526;-67
2023/05/10 01:19:20;;;;;;;3.40;3.10;;;13.30;57.10;;;;;;5057470;28;20440;-67
2023/05/10 01:21:55;;;;;;;10.43;4.00;;;13.30;57.30;;;;;;5056619;28;20428;-66
2023/05/10 01:24:57;;;;;;;5.30;3.70;;;13.30;57.50;;;;;;5056473;28;20429;-66
2023/05/10 01:27:47;;;;;;;4.47;3.37;;;13.20;57.70;;;;;;5055808;28;20526;-66
2023/05/10 01:30:56;;;;;;;4.20;3.53;;;13.20;58.00;;;;;;5055746;28;20431;-66
2023/05/10 01:33:27;;;;;;;6.60;3.60;;;13.10;58.20;;;;;;5055889;28;20798;-65
2023/05/10 01:36:03;;;;;;;4.90;3.40;;;13.10;58.50;;;;;;5055806;28;20542;-66
2023/05/10 01:38:39;;;;;;;7.33;4.20;;;13.10;58.80;;;;;;5054864;28;20441;-65
2023/05/10 01:41:17;;;;;;;8.03;4.03;;;13.00;59.00;;;;;;5056347;28;20454;-66
2023/05/10 01:43:51;;;;;;;14.27;5.40;;;13.00;59.30;;;;;;5055444;28;20428;-67
2023/05/10 01:46:23;;;;;;;7.23;4.13;;;13.00;59.70;;;;;;5055664;28;20456;-66
2023/05/10 01:48:55;;;;;;;5.20;4.03;;;12.90;60.00;;;;;;5055498;28;20436;-66
2023/05/10 01:51:24;;;;;;;4.90;3.83;;;12.90;60.40;;;;;;5055275;28;20429;-67
2023/05/10 01:53:55;;;;;;;5.60;4.10;;;12.90;60.90;;;;;;5055574;28;20815;-65
2023/05/10 01:56:27;;;;;;;3.87;3.50;;;12.80;61.20;;;;;;5055523;28;20468;-66
2023/05/10 01:58:55;;;;;;;4.77;3.83;;;12.80;61.80;;;;;;5055711;28;20439;-66
2023/05/10 02:01:22;;;;;;;3.93;3.63;;;12.80;62.30;;;;;;5055650;28;20444;-66
2023/05/10 02:03:52;;;;;;;5.97;4.80;;;12.80;62.80;;;;;;5054980;28;20938;-65
2023/05/10 02:06:21;;;;;;;5.63;4.23;;;12.70;63.20;;;;;;5055332;28;20476;-67
2023/05/10 02:08:50;;;;;;;4.30;3.90;;;12.70;63.80;;;;;;5055306;28;20436;-67
2023/05/10 02:11:21;;;;;;;5.07;4.53;;;12.70;64.40;;;;;;5055097;28;20432;-66
2023/05/10 02:13:50;;;;;;;5.77;4.20;;;12.70;65.10;;;;;;5054646;28;20452;-66
2023/05/10 02:16:17;;;;;;;8.60;4.77;;;12.60;65.50;;;;;;5054666;28;20462;-66
2023/05/10 02:18:45;;;;;;;4.43;4.03;;;12.60;66.10;;;;;;5054931;28;20444;-65
2023/05/10 02:21:16;;;;;;;4.53;4.13;;;12.60;66.80;;;;;;5054854;28;20447;-66
2023/05/10 02:23:44;;;;;;;6.03;4.53;;;12.60;67.50;;;;;;5055343;28;20440;-67
2023/05/10 02:26:13;;;;;;;5.97;5.37;;;12.60;68.10;;;;;;5054712;28;20467;-66
2023/05/10 02:28:41;;;;;;;7.67;5.10;;;12.60;68.90;;;;;;5054721;28;20471;-66
2023/05/10 02:31:09;;;;;;;5.83;5.33;;;12.60;69.50;;;;;;5054603;28;20806;-67
2023/05/10 02:33:36;;;;;;;5.60;5.00;;;12.60;70.10;;;;;;5055074;28;20440;-67
2023/05/10 02:36:05;;;;;;;5.68;4.88;;;12.60;70.70;;;;;;5053043;28;20424;-66
2023/05/10 02:38:34;;;;;;;5.40;4.90;;;12.50;71.90;;;;;;5053867;28;20706;-66
2023/05/10 02:41:02;;;;;;;6.50;5.10;;;12.50;73.70;;;;;;5054096;28;20440;-68
2023/05/10 02:43:32;;;;;;;6.83;5.40;;;12.50;74.30;;;;;;5054289;28;20452;-66
2023/05/10 02:45:58;;;;;;;7.80;5.10;;;12.50;74.70;;;;;;5053957;28;20412;-67
2023/05/10 02:48:26;;;;;;;8.00;5.30;;;12.50;75.70;;;;;;5054941;28;20205;-66
2023/05/10 02:50:54;;;;;;;6.87;5.53;;;12.50;77.20;;;;;;5053381;28;20459;-67
2023/05/10 02:53:31;;;;;;;7.57;5.37;;;12.50;78.40;;;;;;5054354;28;20440;-67
2023/05/10 02:56:03;;;;;;;5.87;5.27;;;12.50;78.20;;;;;;5053173;28;20410;-67
2023/05/10 02:58:30;;;;;;;6.57;5.97;;;12.50;79.10;;;;;;5054270;28;20465;-66
2023/05/10 03:00:57;;;;;;;5.60;5.00;;;12.50;80.40;;;;;;5054270;28;20451;-66
2023/05/10 03:03:23;;;;;;;8.93;5.63;;;12.50;80.70;;;;;;5054219;28;20453;-65
2023/05/10 03:05:50;;;;;;;6.50;5.27;;;12.50;81.00;;;;;;5053989;28;20858;-67
2023/05/10 03:08:17;;;;;;;6.03;5.23;;;12.50;81.20;;;;;;5054237;28;20444;-66
2023/05/10 03:11:02;;;;;;;6.57;5.60;;;12.50;81.50;;;;;;5053747;28;20451;-66
2023/05/10 03:13:38;;;;;;;8.47;5.87;;;12.50;81.80;;;;;;5054648;28;20432;-66
2023/05/10 03:16:11;;;;;;;5.80;5.30;;;12.50;82.30;;;;;;5054395;28;20467;-65
2023/05/10 03:18:43;;;;;;;6.17;5.67;;;12.50;82.90;;;;;;5054475;28;20480;-66
2023/05/10 03:21:12;;;;;;;7.67;6.10;;;12.50;83.50;;;;;;5054068;28;20428;-66
2023/05/10 03:23:44;;;;;;;7.00;5.80;;;12.50;84.50;;;;;;5053878;28;20821;-65
2023/05/10 03:26:14;;;;;;;7.82;5.70;;;12.50;85.50;;;;;;5052455;28;20911;-66
2023/05/10 03:28:43;;;;;;;6.70;6.10;;;12.60;87.80;;;;;;5053855;28;20178;-66
2023/05/10 03:31:10;;;;;;;6.80;6.10;;;12.60;90.60;;;;;;5053700;28;20451;-67
2023/05/10 03:33:46;;;;;;;8.20;5.67;;;12.60;91.40;;;;;;5053329;28;20962;-66
2023/05/10 03:36:13;;;;;;;7.00;6.17;;;12.60;91.90;;;;;;5053179;28;21011;-66
2023/05/10 03:38:39;;;;;;;7.07;6.17;;;12.60;92.30;;;;;;5053322;28;20550;-66
2023/05/10 03:41:06;;;;;;;6.97;6.27;;;12.60;92.70;;;;;;5053750;28;20448;-66
2023/05/10 03:43:33;;;;;;;7.10;6.40;;;12.60;93.20;;;;;;5053529;28;20440;-68
2023/05/10 03:46:02;;;;;;;6.73;6.13;;;12.60;93.80;;;;;;5053516;28;20487;-66
2023/05/10 03:48:29;;;;;;;8.43;6.93;;;12.60;94.30;;;;;;5053346;28;20444;-66
2023/05/10 03:50:56;;;;;;;8.30;6.13;;;12.60;94.80;;;;;;5053378;28;20451;-67
2023/05/10 03:53:22;;;;;;;7.87;6.90;;;12.60;95.30;;;;;;5053183;28;20447;-66
2023/05/10 03:55:49;;;;;;;11.37;6.57;;;12.60;95.80;;;;;;5052954;28;20468;-67
2023/05/10 03:58:16;;;;;;;10.10;6.37;;;12.50;96.50;;;;;;5053141;28;20841;-66
2023/05/10 04:00:44;;;;;;;7.87;7.07;;;12.50;97.00;;;;;;5052878;28;20455;-66
2023/05/10 04:03:13;;;;;;;7.10;6.50;;;12.50;97.50;;;;;;5053055;28;20448;-66
2023/05/10 04:05:40;;;;;;;8.60;6.80;;;12.50;97.90;;;;;;5052919;28;20484;-66
2023/05/10 04:08:07;;;;;;;7.97;6.40;;;12.50;98.50;;;;;;5052927;28;21019;-66
2023/05/10 04:11:41;;;;;;;8.10;7.30;;;12.50;98.50;;;;;;5113008;27;1231701;-66
2023/05/10 04:14:08;;;;;;;6.97;6.27;;;12.50;99.00;;;;;;5132184;28;20245;-65
2023/05/10 04:16:35;;;;;;;7.90;7.13;;;12.50;99.30;;;;;;5118141;28;20450;-66
2023/05/10 04:19:01;;;;;;;8.37;7.50;;;12.50;99.60;;;;;;5112344;28;20904;-65
2023/05/10 04:21:28;;;;;;;9.50;7.90;;;12.50;99.90;;;;;;5111428;28;20437;-66
2023/05/10 04:23:55;;;;;;;9.07;7.30;;;12.50;99.90;;;;;;5111018;28;20449;-66
2023/05/10 04:26:22;;;;;;;7.90;7.10;;;12.50;99.90;;;;;;5110904;28;20464;-66
2023/05/10 04:28:50;;;;;;;8.03;7.23;;;12.50;99.90;;;;;;5111366;28;20442;-66
2023/05/10 04:31:18;;;;;;;8.70;7.50;;;12.50;99.90;;;;;;5113009;28;20469;-66
2023/05/10 04:33:44;;;;;;;8.03;7.23;;;12.50;99.90;;;;;;5112950;28;20449;-66
2023/05/10 04:36:11;;;;;;;8.00;7.20;;;12.50;99.90;;;;;;5114321;28;20867;-66
2023/05/10 04:38:38;;;;;;;9.57;6.70;;;12.50;99.90;;;;;;5113064;28;20441;-66
2023/05/10 04:41:06;;;;;;;10.00;7.10;;;12.50;99.90;;;;;;5112692;28;20884;-66
2023/05/10 04:43:32;;;;;;;7.23;6.50;;;12.50;99.90;;;;;;5112755;28;20475;-66
2023/05/10 04:46:01;;;;;;;9.47;7.60;;;12.50;99.90;;;;;;5111323;28;20458;-66
2023/05/10 04:48:27;;;;;;;7.80;6.93;;;12.40;99.90;;;;;;5111137;28;20448;-66
2023/05/10 04:50:54;;;;;;;10.13;7.60;;;12.40;99.90;;;;;;5111393;28;20582;-66
2023/05/10 04:53:21;;;;;;;8.63;7.67;;;12.40;99.90;;;;;;5111240;28;20446;-64
2023/05/10 04:55:48;;;;;;;10.20;8.03;;;12.50;99.90;;;;;;5110814;28;20486;-64
2023/05/10 04:58:15;;;;;;;8.17;7.37;;;12.50;99.90;;;;;;5110814;28;20449;-65
2023/05/10 05:00:42;;;;;;;9.40;8.30;;;12.50;99.90;;;;;;5110349;28;20529;-63
2023/05/10 05:03:10;;;;;;;8.23;7.30;;;12.60;99.90;;;;;;5110727;28;20438;-66
2023/05/10 05:05:37;;;;;;;7.90;7.10;;;12.60;99.90;;;;;;5111179;28;20577;-64
2023/05/10 05:08:04;;;;;;;9.87;7.47;;;12.60;99.90;;;;;;5111067;28;20445;-65
2023/05/10 05:10:31;;;;;;;7.70;6.90;;;12.60;99.90;;;;;;5110194;28;20534;-67
2023/05/10 05:12:58;;;;;;;9.30;7.83;;;12.60;99.90;;;;;;5110507;28;20931;-66
2023/05/10 05:15:24;;;;;;;8.10;7.30;;;12.50;99.90;;;;;;5110258;28;20559;-66
2023/05/10 05:17:51;;;;;;;10.10;8.35;;;12.50;99.90;;;;;;5109277;28;20414;-66
2023/05/10 05:20:19;;;;;;;11.20;9.00;;;12.40;99.90;;;;;;5109887;28;20215;-65
2023/05/10 05:22:46;;;;;;;8.83;7.93;;;12.40;99.90;;;;;;5097762;28;20441;-66
2023/05/10 05:25:13;;;;;;;10.70;9.30;;;12.40;99.90;;;;;;5095821;28;20465;-64
2023/05/10 05:27:40;;;;;;;10.03;9.03;;;12.40;99.90;;;;;;5096258;28;20815;-65
2023/05/10 05:30:09;;;;;;;13.82;9.00;;;12.40;99.90;;;;;;5094496;28;20950;-65
2023/05/10 05:32:36;;;;;;;9.87;9.00;;;12.40;99.90;;;;;;5096077;28;20231;-63
2023/05/10 05:35:03;;;;;;;10.23;9.17;;;12.50;99.90;;;;;;5096075;28;20452;-63
2023/05/10 05:37:31;;;;;;;14.63;9.00;;;12.50;99.90;;;;;;5096519;28;20453;-65
2023/05/10 05:39:59;;;;;;;12.20;7.90;;;12.60;99.90;;;;;;5096162;28;20439;-65
2023/05/10 05:42:26;;;;;;;9.03;7.40;;;12.60;99.90;;;;;;5095864;28;20507;-66
2023/05/10 05:44:53;;;;;;;8.43;7.23;;;12.60;99.90;;;;;;5096142;28;20444;-65
2023/05/10 05:47:20;;;;;;;9.83;8.83;;;12.60;99.90;;;;;;5095897;28;20451;-64
2023/05/10 05:49:47;;;;;;;9.53;8.30;;;12.60;99.90;;;;;;5095680;28;20443;-63
2023/05/10 05:52:13;;;;;;;11.67;8.20;;;12.50;99.90;;;;;;5095676;28;20446;-63
2023/05/10 05:54:41;;;;;;;9.60;8.70;;;12.50;99.90;;;;;;5095655;28;20454;-63
2023/05/10 05:57:08;;;;;;;9.23;8.23;;;12.50;99.90;;;;;;5095515;28;20474;-63
2023/05/10 05:59:35;;;;;;;9.10;7.63;;;12.60;99.90;;;;;;5095598;28;21003;-66
2023/05/10 06:02:02;;;;;;;8.83;7.93;;;12.60;99.90;;;;;;5095738;28;20443;-63
2023/05/10 06:04:29;;;;;;;8.47;7.57;;;12.60;99.90;;;;;;5095945;28;20450;-63
2023/05/10 06:06:56;;;;;;;9.10;8.00;;;12.60;99.90;;;;;;5096226;28;20470;-63
2023/05/10 06:09:24;;;;;;;8.30;7.50;;;12.60;99.90;;;;;;5095763;28;20499;-64
2023/05/10 06:11:52;;;;;;;13.03;8.40;;;12.60;99.90;;;;;;5095247;28;20514;-64
2023/05/10 06:14:21;;;;;;;11.57;8.73;;;12.60;99.90;;;;;;5095327;28;20812;-64
2023/05/10 06:16:48;;;;;;;8.50;7.70;;;12.70;99.90;;;;;;5095055;28;20458;-64
2023/05/10 06:19:14;;;;;;;8.27;7.57;;;12.80;99.90;;;;;;5095196;28;20442;-63
2023/05/10 06:21:41;;;;;;;13.40;8.97;;;12.90;99.90;;;;;;5095092;28;20521;-64
2023/05/10 06:24:08;;;;;;;9.33;8.13;;;13.00;99.90;;;;;;5095248;28;20446;-64
2023/05/10 06:26:35;;;;;;;11.47;8.50;;;13.10;99.90;;;;;;5095031;28;20458;-64
2023/05/10 06:29:03;;;;;;;9.00;7.97;;;13.10;99.90;;;;;;5095094;28;20446;-64
2023/05/10 06:31:30;;;;;;;9.50;8.43;;;13.20;99.90;;;;;;5094908;28;20493;-67
2023/05/10 06:33:57;;;;;;;8.83;7.93;;;13.20;99.90;;;;;;5094300;28;20447;-65
2023/05/10 06:36:26;;;;;;;8.70;7.90;;;13.20;99.90;;;;;;5095207;28;20499;-65
2023/05/10 06:38:52;;;;;;;9.50;7.10;;;13.20;99.90;;;;;;5095019;28;20490;-64
2023/05/10 06:41:20;;;;;;;10.03;7.83;;;13.20;99.90;;;;;;5094646;28;21070;-65
2023/05/10 06:43:47;;;;;;;9.17;7.03;;;13.20;99.90;;;;;;5094377;28;20447;-64
2023/05/10 06:46:15;;;;;;;9.00;7.43;;;13.20;99.90;;;;;;5094575;28;20466;-64
2023/05/10 06:48:41;;;;;;;8.53;7.83;;;13.30;99.90;;;;;;5094683;28;20446;-65
2023/05/10 06:51:08;;;;;;;8.60;7.70;;;13.30;99.90;;;;;;5094957;28;20477;-65
2023/05/10 06:53:35;;;;;;;8.50;7.60;;;13.30;99.90;;;;;;5095118;28;20537;-63
2023/05/10 06:56:02;;;;;;;9.73;8.50;;;13.40;99.90;;;;;;5094780;28;20470;-66
2023/05/10 06:58:29;;;;;;;9.83;7.80;;;13.50;99.90;;;;;;5094676;28;20442;-65
2023/05/10 07:01:03;;;;;;;8.90;8.00;;;13.50;99.90;;;;;;5094731;28;20448;-64
2023/05/10 07:03:31;;;;;;;9.83;8.83;;;13.60;99.90;;;;;;5095084;28;20437;-65
2023/05/10 07:06:02;;;;;;;10.23;8.60;;;13.70;99.90;;;;;;5094455;28;20462;-65
2023/05/10 07:08:30;;;;;;;8.23;7.33;;;13.80;99.90;;;;;;5095446;28;20453;-65
2023/05/10 07:11:01;;;;;;;9.52;8.50;;;13.90;99.90;;;;;;5096356;22;20448;-61
2023/05/10 07:13:27;;;;;;;9.30;7.80;;;14.00;99.90;;;;;;5054427;28;20190;-61
2023/05/10 07:15:54;;;;;;;8.87;8.00;;;14.10;99.90;;;;;;5054097;28;20523;-61
2023/05/10 07:18:21;;;;;;;8.03;7.23;;;14.10;99.90;;;;;;5054175;28;20439;-60
2023/05/10 07:20:49;;;;;;;8.17;7.23;;;14.10;99.90;;;;;;5059478;28;20447;-59
2023/05/10 07:23:17;;;;;;;7.47;6.67;;;14.10;99.90;;;;;;5073777;28;20546;-62
2023/05/10 07:25:46;;;;;;;8.43;7.60;;;14.00;99.90;;;;;;5074599;28;20439;-60
2023/05/10 07:28:13;;;;;;;7.20;6.27;;;13.90;99.90;;;;;;5074325;28;20439;-60
2023/05/10 07:30:39;;;;;;;7.87;7.13;;;13.80;99.90;;;;;;5074559;28;20514;-60
2023/05/10 07:33:07;;;;;;;9.70;7.43;;;13.60;99.90;;;;;;5074759;28;20459;-59
2023/05/10 07:35:33;;;;;;;9.37;8.40;;;13.60;99.90;;;;;;5074707;28;20530;-60
2023/05/10 07:38:01;;;;;;;7.63;6.77;;;13.60;99.90;;;;;;5073832;28;20443;-60
2023/05/10 07:40:29;;;;;;;8.33;7.53;;;13.50;99.90;;;;;;5073955;28;20470;-60
2023/05/10 07:42:56;;;;;;;8.13;6.97;;;13.50;99.90;;;;;;5074348;28;20443;-60
2023/05/10 07:45:23;;;;;;;8.40;7.40;;;13.60;99.90;;;;;;5073619;28;20443;-60
2023/05/10 07:47:49;;;;;;;10.60;7.20;;;13.50;99.90;;;;;;5074273;28;20456;-61
2023/05/10 07:50:16;;;;;;;8.40;7.60;;;13.40;99.90;;;;;;5073753;28;20447;-60
2023/05/10 07:52:43;;;;;;;9.90;8.77;;;13.30;99.90;;;;;;5073755;28;20494;-60
2023/05/10 07:55:12;;;;;;;8.97;8.07;;;13.20;99.90;;;;;;5073680;28;20450;-60
2023/05/10 07:57:39;;;;;;;9.87;8.63;;;13.20;99.90;;;;;;5074119;28;20443;-59
2023/05/10 08:00:07;;;;;;;9.40;8.50;;;13.10;99.90;;;;;;5074102;28;20811;-60
2023/05/10 08:02:34;;;;;;;9.77;8.50;;;13.20;99.90;;;;;;5073909;28;20523;-60
2023/05/10 08:05:01;;;;;;;10.37;9.17;;;13.20;99.90;;;;;;5073682;28;20451;-59
2023/05/10 08:07:28;;;;;;;9.57;8.67;;;13.20;99.90;;;;;;5073736;28;20447;-60
2023/05/10 08:09:55;;;;;;;10.77;7.47;;;13.20;99.90;;;;;;5073978;28;20443;-61
2023/05/10 08:12:23;;;;;;;9.17;8.33;;;13.30;99.90;;;;;;5073121;28;20998;-60
2023/05/10 08:14:49;;;;;;;7.67;6.53;;;13.20;99.90;;;;;;5073579;28;20786;-60
2023/05/10 08:17:16;;;;;;;7.27;6.50;;;13.20;99.90;;;;;;5073176;28;20457;-60
2023/05/10 08:19:43;;;;;;;5.40;4.87;;;13.20;99.90;;;;;;5073673;28;20446;-60
2023/05/10 08:22:10;;;;;;;5.80;4.70;;;13.30;99.90;;;;;;5073183;28;20833;-59
2023/05/10 08:24:38;;;;;;;4.83;4.00;;;13.30;99.90;;;;;;5073347;28;20449;-59
2023/05/10 08:27:05;;;;;;;3.73;3.03;;;13.40;99.90;;;;;;5076654;28;20439;-60
2023/05/10 08:29:33;;;;;;;2.63;2.00;;;13.40;99.90;;;;;;5078099;28;20478;-59
2023/05/10 08:32:00;;;;;;;2.50;2.30;;;13.40;99.90;;;;;;5077379;28;20474;-60
2023/05/10 08:34:27;;;;;;;3.33;2.10;;;13.30;99.90;;;;;;5074629;28;20458;-61
2023/05/10 08:36:54;;;;;;;2.40;2.20;;;13.30;99.90;;;;;;5074255;28;20447;-61
2023/05/10 08:39:20;;;;;;;3.00;2.63;;;13.30;99.90;;;;;;5074450;28;20443;-60
2023/05/10 08:41:48;;;;;;;4.07;2.40;;;13.30;99.90;;;;;;5074248;28;20461;-61
2023/05/10 08:44:18;;;;;;;2.67;2.47;;;13.40;99.90;;;;;;5074433;28;20448;-62
2023/05/10 08:46:50;;;;;;;3.00;2.70;;;13.40;99.90;;;;;;5073669;28;20415;-61
2023/05/10 08:49:18;;;;;;;3.30;3.00;;;13.40;99.90;;;;;;5074212;28;20311;-59
2023/05/10 08:51:51;;;;;;;3.00;2.67;;;13.40;99.90;;;;;;5073864;28;20566;-60
2023/05/10 08:54:17;;;;;;;4.67;3.30;;;13.40;99.90;;;;;;5073378;28;20424;-60
2023/05/10 08:56:44;;;;;;;4.20;3.60;;;13.50;99.90;;;;;;5074109;28;20443;-61
2023/05/10 08:59:12;;;;;;;3.40;3.10;;;13.60;99.90;;;;;;5076515;28;20811;-60
2023/05/10 09:01:40;;;;;;;3.63;2.93;;;13.80;99.90;;;;;;5077142;28;20884;-59
2023/05/10 09:04:08;;;;;;;4.13;3.23;;;13.80;99.90;;;;;;5076731;28;20451;-61
2023/05/10 09:06:36;;;;;;;4.32;3.58;;;13.80;99.90;;;;;;5076542;28;20412;-60
2023/05/10 09:09:03;;;;;;;4.70;4.00;;;13.80;99.90;;;;;;5077746;28;20236;-59
2023/05/10 09:11:31;;;;;;;6.07;4.20;;;13.80;99.90;;;;;;5077095;28;20491;-58
2023/05/10 09:13:57;;;;;;;3.83;2.97;;;13.80;99.90;;;;;;5076736;28;20451;-60
2023/05/10 09:16:25;;;;;;;3.60;3.17;;;13.80;99.90;;;;;;5077030;28;20454;-59
2023/05/10 09:18:52;;;;;;;3.93;3.53;;;13.90;99.90;;;;;;5076700;28;20446;-59
2023/05/10 09:21:20;;;;;;;4.00;3.07;;;13.90;99.90;;;;;;5076633;28;20969;-60
2023/05/10 09:23:47;;;;;;;3.20;2.90;;;13.90;99.90;;;;;;5076558;28;20447;-59
2023/05/10 09:26:14;;;;;;;7.63;4.00;;;13.90;99.90;;;;;;5077102;28;20447;-59
2023/05/10 09:28:52;;;;;;;4.03;3.63;;;13.90;99.90;;;;;;5078742;28;20439;-61
2023/05/10 09:31:19;;;;;;;4.20;3.80;;;14.00;99.90;;;;;;5077656;28;20490;-62
2023/05/10 09:33:46;;;;;;;3.80;3.50;;;14.00;99.90;;;;;;5076757;28;20807;-61
2023/05/10 09:36:13;;;;;;;4.22;3.55;;;14.10;99.90;;;;;;5075263;28;20753;-61
2023/05/10 09:38:48;;;;;;;4.85;4.40;;;14.20;99.90;;;;;;5075177;28;20423;-59
2023/05/10 09:41:20;;;;;;;4.30;3.87;;;14.30;99.90;;;;;;5076300;28;20282;-61
2023/05/10 09:43:46;;;;;;;4.30;3.60;;;14.60;99.90;;;;;;5076539;28;20443;-60
2023/05/10 09:46:13;;;;;;;3.70;3.40;;;14.70;99.90;;;;;;5077304;28;20446;-60
2023/05/10 09:48:43;;;;;;;3.90;3.60;;;14.80;99.90;;;;;;5077248;28;20447;-58
2023/05/10 09:51:10;;;;;;;4.27;3.43;;;14.80;99.90;;;;;;5077078;28;20459;-59
2023/05/10 09:53:37;;;;;;;3.97;3.47;;;14.90;99.90;;;;;;5077371;28;20791;-60
2023/05/10 09:56:05;;;;;;;3.97;3.57;;;15.00;99.90;;;;;;5077065;28;20447;-59
2023/05/10 09:58:32;;;;;;;5.90;3.10;;;15.10;99.90;;;;;;5077083;28;20447;-61
2023/05/10 10:00:59;;;;;;;3.87;3.53;;;15.20;99.90;;;;;;5076455;28;20459;-63
2023/05/10 10:03:26;;;;;;;5.80;3.10;;;15.30;99.90;;;;;;5076829;28;20440;-59
2023/05/10 10:05:55;;;;;;;7.67;3.23;;;15.30;99.90;;;;;;5076050;28;20443;-60
2023/05/10 10:08:23;;;;;;;3.63;3.20;;;15.20;99.90;;;;;;5075981;28;20813;-61
2023/05/10 10:10:50;;;;;;;4.27;3.43;;;15.10;99.90;;;;;;5075202;28;20494;-60
2023/05/10 10:13:18;;;;;;;4.60;3.70;;;15.10;99.90;;;;;;5075568;28;20483;-59
2023/05/10 10:15:46;;;;;;;7.07;3.50;;;15.10;99.90;;;;;;5075678;28;20499;-61
2023/05/10 10:18:14;;;;;;;4.30;3.40;;;15.20;99.90;;;;;;5075692;28;20447;-61
2023/05/10 10:20:42;;;;;;;4.30;3.90;;;15.30;99.90;;;;;;5075843;28;20459;-61
2023/05/10 10:23:09;;;;;;;3.47;3.17;;;15.30;99.90;;;;;;5075675;28;20443;-61
2023/05/10 10:25:36;;;;;;;5.20;4.00;;;15.40;99.90;;;;;;5074924;28;20850;-61
2023/05/10 10:28:22;;;;;;;5.30;4.00;;;15.50;99.90;;;;;;5078210;28;20283;-60
2023/05/10 10:30:52;;;;;;;4.10;3.70;;;15.70;99.90;;;;;;5075621;28;20416;-61
2023/05/10 10:33:41;;;;;;;3.53;3.23;;;16.00;99.90;;;;;;5075719;28;20220;-61
2023/05/10 10:36:08;;;;;;;4.27;3.70;;;16.20;99.90;;;;;;5075166;28;20458;-61
2023/05/10 10:38:59;;;;;;;3.57;3.27;;;16.40;99.90;;;;;;5075453;28;20818;-60
2023/05/10 10:41:33;;;;;;;5.33;3.73;;;16.50;99.90;;;;;;5075216;28;20475;-61
2023/05/10 10:44:37;;;;;;;3.77;3.37;;;16.70;99.90;;;;;;5075626;28;20795;-61
2023/05/10 10:47:28;;;;;;;5.30;3.30;;;16.90;99.90;;;;;;5075595;28;20810;-61
2023/05/10 10:50:04;;;;;;;7.63;3.33;;;16.90;99.90;;;;;;5075665;28;20471;-62
2023/05/10 10:52:37;;;;;;;4.63;3.00;;;16.90;99.90;;;;;;5075681;28;20494;-60
2023/05/10 10:55:08;;;;;;;5.53;3.20;;;17.00;99.90;;;;;;5076416;28;20454;-61
2023/05/10 10:57:44;;;;;;;8.27;3.90;;;17.10;99.90;;;;;;5076365;28;20424;-62
2023/05/10 11:00:25;;;;;;;4.30;3.45;;;17.30;99.90;;;;;;5074665;28;20461;-62
2023/05/10 11:02:55;;;;;;;3.70;2.77;;;17.60;99.90;;;;;;5076468;28;20477;-60
2023/05/10 11:05:36;;;;;;;3.67;3.37;;;17.80;99.90;;;;;;5075533;28;20447;-59
2023/05/10 11:08:12;;;;;;;3.77;3.13;;;18.00;99.90;;;;;;5074933;28;20800;-60
2023/05/10 11:10:40;;;;;;;3.53;3.23;;;18.10;99.90;;;;;;5074935;28;20984;-60
2023/05/10 11:13:09;;;;;;;3.47;3.17;;;18.20;99.90;;;;;;5074944;28;20470;-60
2023/05/10 11:15:37;;;;;;;4.63;3.13;;;18.30;99.90;;;;;;5075882;28;20505;-63
2023/05/10 11:18:19;;;;;;;3.30;2.90;;;18.30;99.90;;;;;;5075361;28;20526;-61
2023/05/10 11:20:51;;;;;;;3.60;3.10;;;18.40;99.90;;;;;;5074971;28;20473;-60
2023/05/10 11:23:19;;;;;;;4.00;3.40;;;18.40;99.90;;;;;;5075019;28;20428;-60
2023/05/10 11:25:47;;;;;;;5.10;3.40;;;18.40;99.90;;;;;;5074302;28;20462;-62
2023/05/10 11:28:14;;;;;;;4.40;3.50;;;18.60;99.90;;;;;;5075165;28;20204;-61
2023/05/10 11:30:44;;;;;;;4.60;3.50;;;18.80;99.90;;;;;;5074534;28;20415;-61
2023/05/10 11:33:15;;;;;;;4.90;3.38;;;19.00;99.90;;;;;;5074218;28;20415;-61
2023/05/10 11:35:44;;;;;;;4.32;3.30;;;19.10;99.10;;;;;;5074169;28;20556;-62
2023/05/10 11:38:12;;;;;;;5.07;3.80;;;19.20;98.20;;;;;;5075742;28;20212;-60
2023/05/10 11:40:39;;;;;;;4.33;3.50;;;19.40;98.30;;;;;;5074543;28;20459;-61
2023/05/10 11:43:06;;;;;;;4.50;3.17;;;19.70;97.60;;;;;;5074822;28;20440;-60
2023/05/10 11:45:34;;;;;;;4.30;3.90;;;19.90;96.30;;;;;;5075275;28;20455;-60
2023/05/10 11:48:01;;;;;;;5.27;3.30;;;20.10;94.80;;;;;;5074832;28;20499;-61
2023/05/10 11:50:28;;;;;;;4.03;3.10;;;20.30;93.30;;;;;;5075027;28;20465;-62
2023/05/10 11:52:58;;;;;;;3.77;3.40;;;20.40;91.50;;;;;;5075366;28;20479;-60
2023/05/10 11:55:25;;;;;;;4.47;3.63;;;20.30;89.80;;;;;;5075019;28;20841;-61
2023/05/10 11:57:53;;;;;;;3.97;3.53;;;20.40;89.60;;;;;;5073593;28;20419;-60
2023/05/10 12:00:21;;;;;;;6.07;3.67;;;20.50;83.60;;;;;;5074246;28;20206;-61
2023/05/10 12:02:48;;;;;;;3.80;3.50;;;20.70;81.40;;;;;;5074776;28;20437;-60
2023/05/10 12:05:15;;;;;;;4.00;3.60;;;20.80;78.80;;;;;;5074667;28;20451;-61
2023/05/10 12:07:41;;;;;;;4.73;3.37;;;21.00;76.50;;;;;;5074485;28;20445;-61
2023/05/10 12:10:14;;;;;;;5.07;3.77;;;21.30;74.50;;;;;;5074610;28;20454;-61
2023/05/10 12:12:42;;;;;;;4.30;3.87;;;21.60;72.50;;;;;;5074432;28;20482;-64
2023/05/10 12:15:13;;;;;;;4.90;3.90;;;21.90;71.50;;;;;;5075064;28;20446;-61
2023/05/10 12:17:41;;;;;;;5.43;3.80;;;22.20;69.20;;;;;;5079309;28;20902;-60
2023/05/10 12:20:18;;;;;;;5.07;3.93;;;22.20;68.40;;;;;;5080237;28;20904;-61
2023/05/10 12:22:49;;;;;;;4.43;4.03;;;22.20;67.60;;;;;;5075438;28;20443;-62
2023/05/10 12:25:18;;;;;;;4.67;4.20;;;21.90;67.50;;;;;;5074094;28;20892;-61
2023/05/10 12:27:56;;;;;;;4.80;3.80;;;21.70;68.20;;;;;;5074833;28;20446;-61
2023/05/10 12:30:24;;;;;;;4.60;3.50;;;21.40;69.60;;;;;;5074187;28;20454;-61
2023/05/10 12:32:51;;;;;;;4.60;3.73;;;21.30;70.90;;;;;;5077282;28;20517;-60
2023/05/10 12:35:20;;;;;;;4.53;3.77;;;21.30;71.20;;;;;;5079063;28;20519;-61
2023/05/10 12:37:47;;;;;;;3.87;3.57;;;21.20;71.30;;;;;;5078773;28;20453;-59
2023/05/10 12:40:14;;;;;;;4.97;4.03;;;21.20;72.10;;;;;;5079537;28;20460;-60
2023/05/10 12:42:44;;;;;;;6.63;3.93;;;21.50;71.80;;;;;;5079287;28;20537;-60
2023/05/10 12:45:11;;;;;;;5.17;4.67;;;21.90;70.40;;;;;;5079268;28;20443;-59
2023/05/10 12:47:38;;;;;;;4.70;4.20;;;22.30;69.20;;;;;;5079289;28;20977;-61
2023/05/10 12:50:06;;;;;;;6.20;4.80;;;22.80;67.50;;;;;;5079051;28;20550;-59
2023/05/10 12:52:33;;;;;;;4.40;3.90;;;23.20;65.40;;;;;;5078256;28;20479;-59
2023/05/10 12:55:00;;;;;;;3.50;3.20;;;23.20;63.90;;;;;;5078718;28;20448;-59